Aeroporto :
LOGIN :

Iscrizione | Disclaimer

   EN    FR    IT 

 










Sommario :    VFR   VFR Marginale   IFR   IFR Intensivo   IFR Molto Intensivo
Visibilità : 
Base nubi : 
>= 8 km
>= 3000ft
5 / 8 km
1000 / 3000 ft
1500m / 5 km
500 / 1000 ft
800 / 1500m
200 / 500 ft
< 800m
< 200 ft
Simboli :   Temporali  Nebbia  Neve Forte  Precipitazioni Forti  Vento > 20 kt
SIGMETs :   Varie  Temporali  Ghiacco  Turbolenza  Onda orograficha  Ceneri Vulcaniche






- Altitudine del aeroporto : 141 ft
- Codice IATA : SKS


EKSP - Srydstrup Vojens

ULTIMO METAR :
  • 210220Z 30003KT CAVOK M02/M06 Q1025

METARs OBSOLETI :
  • 210150Z 31007KT CAVOK M02/M06 Q1025
  • 210120Z 26004KT CAVOK M04/M07 Q1025
  • 210050Z 28004KT CAVOK M04/M06 Q1025
  • 210020Z 27006KT CAVOK M03/M07 Q1025
  • 202350Z 25006KT CAVOK M04/M08 Q1025

TAF TAF EKSP
Valido dal 21 a 00 ore il 22 a 00 ore UTC


202306Z 2100/2124 28008KT 9999 FEW030
BECMG 2111/2114 27012G22KT 3000 RADZ BR BKN006
BECMG 2114/2117 30012KT 9000 NSW SCT008 BKN015
TEMPO 2117/2122 4000 BR -DZ BKN008
TEMPO 2122/2124 2500 BR -DZ BKN006



MetMap, La meteo Aeronautica in un colpo d'occhio ! - Copyright ORBIFLY Dicembre 2007 - Disclaimer

ORBIFLY MET'MAP TEAM :

Programmazione e sviluppo : Alexandra Zaïnal
Concezione : Baudouin d'Aumeries
Aiuto per la programmazione : Marc-Olivier Méhu
Supporto tecnico e logistico : Manuel Goepfert
Aiuto per la traduzione : Arnaldo La Scala

Contatto : metmap@orbifly.com




FONTI E CREDITI :

   NOAA